createdAt,value
2016-03-15T00:00:33.279Z,0
2016-03-15T00:01:33.297Z,0
2016-03-15T00:02:33.284Z,0
2016-03-15T00:03:33.318Z,0
2016-03-15T00:04:33.322Z,0
2016-03-15T00:05:33.324Z,0
2016-03-15T00:06:33.327Z,0
2016-03-15T00:07:33.318Z,0
2016-03-15T00:08:33.352Z,0
2016-03-15T00:09:33.340Z,0
2016-03-15T00:10:33.357Z,0
2016-03-15T00:11:33.346Z,0
2016-03-15T00:12:33.363Z,0
2016-03-15T00:13:33.366Z,0
2016-03-15T00:14:33.384Z,0
2016-03-15T00:15:42.402Z,0
2016-03-15T00:16:33.405Z,0
2016-03-15T00:17:33.393Z,0
2016-03-15T00:18:33.410Z,0
2016-03-15T00:19:33.398Z,0
2016-03-15T00:20:33.415Z,0
2016-03-15T00:21:33.418Z,0
2016-03-15T00:22:33.421Z,0
2016-03-15T00:23:33.439Z,0
2016-03-15T00:24:33.427Z,0
2016-03-15T00:25:33.445Z,0
2016-03-15T00:26:33.447Z,0
2016-03-15T00:27:33.466Z,0
2016-03-15T00:28:33.469Z,0
2016-03-15T00:29:33.472Z,0
2016-03-15T00:30:33.350Z,0
2016-03-15T00:31:33.508Z,0
2016-03-15T00:32:33.511Z,0
2016-03-15T00:33:33.514Z,0
2016-03-15T00:34:33.500Z,0
2016-03-15T00:35:33.520Z,0
2016-03-15T00:36:33.523Z,0
2016-03-15T00:37:33.540Z,0
2016-03-15T00:38:33.528Z,0
2016-03-15T00:39:33.561Z,0
2016-03-15T00:40:33.533Z,0
2016-03-15T00:41:33.536Z,0
2016-03-15T00:42:33.601Z,0
2016-03-15T00:43:33.557Z,0
2016-03-15T00:44:33.559Z,0
2016-03-15T00:45:42.609Z,0
2016-03-15T00:46:33.580Z,0
2016-03-15T00:47:33.583Z,0
2016-03-15T00:48:33.632Z,0
2016-03-15T00:49:33.589Z,0
2016-03-15T00:50:33.608Z,0
2016-03-15T00:51:33.610Z,0
2016-03-15T00:52:33.613Z,0
2016-03-15T00:53:33.630Z,0
2016-03-15T00:54:33.633Z,0
2016-03-15T00:55:33.636Z,0
2016-03-15T00:56:33.644Z,0
2016-03-15T00:57:33.662Z,0
2016-03-15T00:58:33.665Z,0
2016-03-15T00:59:33.667Z,0
2016-03-15T01:00:33.670Z,0
2016-03-15T01:01:33.672Z,0
2016-03-15T01:02:33.707Z,0
2016-03-15T01:03:33.678Z,0
2016-03-15T01:04:33.712Z,0
2016-03-15T01:05:33.730Z,0
2016-03-15T01:06:33.717Z,0
2016-03-15T01:07:33.736Z,0
2016-03-15T01:08:33.723Z,0
2016-03-15T01:09:33.725Z,0
2016-03-15T01:10:33.728Z,0
2016-03-15T01:11:33.747Z,0
2016-03-15T01:12:33.733Z,0
2016-03-15T01:13:33.767Z,0
2016-03-15T01:14:33.786Z,0
2016-03-15T01:15:33.757Z,0
2016-03-15T01:16:33.775Z,0
2016-03-15T01:17:33.778Z,0
2016-03-15T01:18:33.780Z,0
2016-03-15T01:19:33.799Z,0
2016-03-15T01:20:33.786Z,0
2016-03-15T01:21:33.836Z,0
2016-03-15T01:22:33.807Z,0
2016-03-15T01:23:33.826Z,0
2016-03-15T01:24:33.844Z,0
2016-03-15T01:25:33.831Z,0
2016-03-15T01:26:33.834Z,0
2016-03-15T01:27:33.852Z,0
2016-03-15T01:28:33.870Z,0
2016-03-15T01:29:33.842Z,0
2016-03-15T01:30:33.876Z,0
2016-03-15T01:31:33.862Z,0
2016-03-15T01:32:33.897Z,0
2016-03-15T01:33:33.868Z,0
2016-03-15T01:34:33.886Z,0
2016-03-15T01:35:33.890Z,0
2016-03-15T01:36:33.892Z,0
2016-03-15T01:37:33.894Z,0
2016-03-15T01:38:33.914Z,0
2016-03-15T01:39:33.962Z,0
2016-03-15T01:40:33.918Z,0
2016-03-15T01:41:33.937Z,0
2016-03-15T01:42:33.924Z,0
2016-03-15T01:43:33.177Z,0
2016-03-15T01:44:33.960Z,0
2016-03-15T01:45:33.947Z,0
2016-03-15T01:46:33.980Z,0
2016-03-15T01:47:33.969Z,0
2016-03-15T01:48:34.002Z,0
2016-03-15T01:49:33.973Z,0
2016-03-15T01:50:33.992Z,0
2016-03-15T01:51:33.994Z,0
2016-03-15T01:52:33.997Z,0
2016-03-15T01:53:34.016Z,0
2016-03-15T01:54:34.002Z,0
2016-03-15T01:55:34.021Z,0
2016-03-15T01:56:34.008Z,0
2016-03-15T01:57:34.042Z,0
2016-03-15T01:58:34.029Z,0
2016-03-15T01:59:34.048Z,0
2016-03-15T02:00:34.051Z,0
2016-03-15T02:01:34.053Z,0
2016-03-15T02:02:34.086Z,0
2016-03-15T02:03:34.059Z,0
2016-03-15T02:04:34.092Z,0
2016-03-15T02:05:34.079Z,0
2016-03-15T02:06:34.081Z,0
2016-03-15T02:07:34.084Z,0
2016-03-15T02:08:33.947Z,0
2016-03-15T02:09:34.106Z,0
2016-03-15T02:10:34.108Z,0
2016-03-15T02:11:34.111Z,0
2016-03-15T02:12:34.130Z,0
2016-03-15T02:13:34.163Z,0
2016-03-15T02:14:34.119Z,0
2016-03-15T02:15:34.153Z,0
2016-03-15T02:16:34.155Z,0
2016-03-15T02:17:34.158Z,0
2016-03-15T02:18:34.161Z,0
2016-03-15T02:19:34.211Z,0
2016-03-15T02:20:34.183Z,0
2016-03-15T02:21:34.200Z,0
2016-03-15T02:22:34.188Z,0
2016-03-15T02:23:34.205Z,0
2016-03-15T02:24:34.208Z,0
2016-03-15T02:25:34.227Z,0
2016-03-15T02:26:34.213Z,0
2016-03-15T02:27:34.216Z,0
2016-03-15T02:28:34.218Z,0
2016-03-15T02:29:34.237Z,0
2016-03-15T02:30:34.224Z,0
2016-03-15T02:31:34.242Z,0
2016-03-15T02:32:34.245Z,0
2016-03-15T02:33:34.264Z,0
2016-03-15T02:34:34.267Z,0
2016-03-15T02:35:34.270Z,0
2016-03-15T02:36:34.288Z,0
2016-03-15T02:37:34.290Z,0
2016-03-15T02:38:34.278Z,0
2016-03-15T02:39:34.295Z,0
2016-03-15T02:40:34.298Z,0
2016-03-15T02:41:34.300Z,0
2016-03-15T02:42:34.335Z,0
2016-03-15T02:43:34.338Z,0
2016-03-15T02:44:34.324Z,0
2016-03-15T02:45:34.328Z,0
2016-03-15T02:46:34.346Z,0
2016-03-15T02:47:34.349Z,0
2016-03-15T02:48:34.352Z,0
2016-03-15T02:49:34.385Z,0
2016-03-15T02:50:34.372Z,0
2016-03-15T02:51:34.390Z,0
2016-03-15T02:52:34.377Z,0
2016-03-15T02:53:34.380Z,0
2016-03-15T02:54:34.414Z,0
2016-03-15T02:55:34.402Z,0
2016-03-15T02:56:34.419Z,0
2016-03-15T02:57:34.407Z,0
2016-03-15T02:58:34.456Z,0
2016-03-15T02:59:34.412Z,0
2016-03-15T03:00:34.446Z,0
2016-03-15T03:01:34.432Z,0
2016-03-15T03:02:34.451Z,0
2016-03-15T03:03:34.437Z,0
2016-03-15T03:04:34.472Z,0
2016-03-15T03:05:34.459Z,0
2016-03-15T03:06:34.478Z,0
2016-03-15T03:07:34.464Z,0
2016-03-15T03:08:34.484Z,0
2016-03-15T03:09:34.501Z,0
2016-03-15T03:10:34.489Z,0
2016-03-15T03:11:34.522Z,0
2016-03-15T03:12:34.509Z,0
2016-03-15T03:13:34.512Z,0
2016-03-15T03:14:34.514Z,0
2016-03-15T03:15:34.533Z,0
2016-03-15T03:16:34.519Z,0
2016-03-15T03:17:34.538Z,0
2016-03-15T03:18:34.541Z,0
2016-03-15T03:19:34.543Z,0
2016-03-15T03:20:34.609Z,0
2016-03-15T03:21:34.581Z,0
2016-03-15T03:22:34.583Z,0
2016-03-15T03:23:34.571Z,0
2016-03-15T03:24:34.589Z,0
2016-03-15T03:25:34.576Z,0
2016-03-15T03:26:34.594Z,0
2016-03-15T03:27:34.596Z,0
2016-03-15T03:28:34.615Z,0
2016-03-15T03:29:34.602Z,0
2016-03-15T03:30:34.621Z,0
2016-03-15T03:31:34.623Z,0
2016-03-15T03:32:34.625Z,0
2016-03-15T03:33:34.644Z,0
2016-03-15T03:34:34.631Z,0
2016-03-15T03:35:34.493Z,0
2016-03-15T03:36:34.652Z,0
2016-03-15T03:37:34.686Z,0
2016-03-15T03:38:34.657Z,0
2016-03-15T03:39:34.676Z,0
2016-03-15T03:40:34.678Z,0
2016-03-15T03:41:34.697Z,0
2016-03-15T03:42:34.683Z,0
2016-03-15T03:43:34.702Z,0
2016-03-15T03:44:34.705Z,0
2016-03-15T03:45:34.567Z,0
2016-03-15T03:46:34.725Z,0
2016-03-15T03:47:34.556Z,0
2016-03-15T03:48:34.716Z,0
2016-03-15T03:49:34.733Z,0
2016-03-15T03:50:34.783Z,0
2016-03-15T03:51:34.771Z,0
2016-03-15T03:52:34.805Z,0
2016-03-15T03:53:34.760Z,0
2016-03-15T03:54:34.763Z,0
2016-03-15T03:55:34.765Z,0
2016-03-15T03:56:34.785Z,0
2016-03-15T03:57:34.787Z,0
2016-03-15T03:58:34.789Z,0
2016-03-15T03:59:34.808Z,0
2016-03-15T04:00:34.826Z,0
2016-03-15T04:01:34.813Z,0
2016-03-15T04:02:34.801Z,0
2016-03-15T04:03:34.834Z,0
2016-03-15T04:04:34.852Z,0
2016-03-15T04:05:34.823Z,0
2016-03-15T04:06:34.857Z,0
2016-03-15T04:07:34.844Z,0
2016-03-15T04:08:34.863Z,0
2016-03-15T04:09:34.865Z,0
2016-03-15T04:10:34.868Z,0
2016-03-15T04:11:34.871Z,0
2016-03-15T04:12:34.873Z,0
2016-03-15T04:13:34.892Z,0
2016-03-15T04:14:34.879Z,0
2016-03-15T04:15:34.881Z,0
2016-03-15T04:16:34.916Z,0
2016-03-15T04:17:34.919Z,0
2016-03-15T04:18:34.905Z,0
2016-03-15T04:19:34.909Z,0
2016-03-15T04:20:34.927Z,0
2016-03-15T04:21:34.934Z,0
2016-03-15T04:22:34.937Z,0
2016-03-15T04:23:34.940Z,0
2016-03-15T04:24:34.989Z,0
2016-03-15T04:25:34.960Z,0
2016-03-15T04:26:34.979Z,0
2016-03-15T04:27:34.965Z,0
2016-03-15T04:28:34.985Z,0
2016-03-15T04:29:34.971Z,0
2016-03-15T04:30:34.989Z,0
2016-03-15T04:31:35.024Z,0
2016-03-15T04:32:34.995Z,0
2016-03-15T04:33:35.013Z,0
2016-03-15T04:34:35.016Z,0
2016-03-15T04:35:35.038Z,0
2016-03-15T04:36:35.024Z,0
2016-03-15T04:37:35.028Z,0
2016-03-15T04:38:35.030Z,0
2016-03-15T04:39:35.049Z,0
2016-03-15T04:40:35.052Z,0
2016-03-15T04:41:35.054Z,0
2016-03-15T04:42:35.073Z,0
2016-03-15T04:43:35.060Z,0
2016-03-15T04:44:35.093Z,0
2016-03-15T04:45:35.065Z,0
2016-03-15T04:46:35.099Z,0
2016-03-15T04:47:35.086Z,0
2016-03-15T04:48:35.090Z,0
2016-03-15T04:49:35.107Z,0
2016-03-15T04:50:35.125Z,0
2016-03-15T04:51:35.113Z,0
2016-03-15T04:52:35.131Z,0
2016-03-15T04:53:35.148Z,0
2016-03-15T04:54:35.136Z,0
2016-03-15T04:55:35.139Z,0
2016-03-15T04:56:35.156Z,0
2016-03-15T04:57:35.145Z,0
2016-03-15T04:58:35.178Z,0
2016-03-15T04:59:35.180Z,0
2016-03-15T05:00:35.168Z,0
2016-03-15T05:01:35.186Z,0
2016-03-15T05:02:35.188Z,0
2016-03-15T05:03:35.208Z,0
2016-03-15T05:04:35.194Z,0
2016-03-15T05:05:35.213Z,0
2016-03-15T05:06:35.200Z,0
2016-03-15T05:07:35.218Z,0
2016-03-15T05:08:35.236Z,0
2016-03-15T05:09:35.224Z,0
2016-03-15T05:10:35.226Z,0
2016-03-15T05:11:35.244Z,0
2016-03-15T05:12:35.263Z,0
2016-03-15T05:13:35.249Z,0
2016-03-15T05:14:35.268Z,0
2016-03-15T05:15:35.271Z,0
2016-03-15T05:16:35.289Z,0
2016-03-15T05:17:35.276Z,0
2016-03-15T05:18:35.279Z,0
2016-03-15T05:19:35.281Z,0
2016-03-15T05:20:35.300Z,0
2016-03-15T05:21:35.303Z,0
2016-03-15T05:22:35.305Z,0
2016-03-15T05:23:35.309Z,0
2016-03-15T05:24:35.326Z,0
2016-03-15T05:25:35.313Z,0
2016-03-15T05:26:35.332Z,4
2016-03-15T05:27:35.334Z,4
2016-03-15T05:28:35.353Z,4
2016-03-15T05:29:35.386Z,0
2016-03-15T05:30:35.358Z,0
2016-03-15T05:31:35.376Z,4
2016-03-15T05:32:35.364Z,4
2016-03-15T05:33:35.397Z,4
2016-03-15T05:34:35.369Z,4
2016-03-15T05:35:35.403Z,4
2016-03-15T05:36:35.405Z,4
2016-03-15T05:37:35.424Z,8
2016-03-15T05:38:35.379Z,4
2016-03-15T05:39:35.413Z,8
2016-03-15T05:40:35.416Z,12
2016-03-15T05:41:35.435Z,8
2016-03-15T05:42:35.437Z,12
2016-03-15T05:43:35.440Z,12
2016-03-15T05:44:35.443Z,12
2016-03-15T05:45:35.476Z,12
2016-03-15T05:46:35.463Z,12
2016-03-15T05:47:35.450Z,16
2016-03-15T05:48:35.454Z,16
2016-03-15T05:49:35.471Z,20
2016-03-15T05:50:35.459Z,20
2016-03-15T05:51:35.477Z,20
2016-03-15T05:52:35.479Z,20
2016-03-15T05:53:35.482Z,24
2016-03-15T05:54:35.501Z,24
2016-03-15T05:55:35.503Z,28
2016-03-15T05:56:35.506Z,32
2016-03-15T05:57:35.509Z,36
2016-03-15T05:58:35.527Z,44
2016-03-15T05:59:35.514Z,48
2016-03-15T06:00:35.533Z,56
2016-03-15T06:01:35.535Z,64
2016-03-15T06:02:35.397Z,72
2016-03-15T06:03:35.556Z,80
2016-03-15T06:04:35.574Z,88
2016-03-15T06:05:35.577Z,96
2016-03-15T06:06:35.589Z,104
2016-03-15T06:07:35.561Z,112
2016-03-15T06:08:35.549Z,128
2016-03-15T06:09:35.567Z,140
2016-03-15T06:10:35.538Z,152
2016-03-15T06:11:35.530Z,168
2016-03-15T06:12:35.527Z,176
2016-03-15T06:13:35.556Z,188
2016-03-15T06:14:35.537Z,192
2016-03-15T06:15:35.534Z,200
2016-03-15T06:16:35.534Z,208
2016-03-15T06:17:35.534Z,216
2016-03-15T06:18:35.534Z,220
2016-03-15T06:19:35.534Z,232
2016-03-15T06:20:35.551Z,240
2016-03-15T06:21:35.552Z,244
2016-03-15T06:22:35.553Z,228
2016-03-15T06:23:35.571Z,236
2016-03-15T06:24:35.572Z,248
2016-03-15T06:25:35.574Z,256
2016-03-15T06:26:35.593Z,276
2016-03-15T06:27:35.595Z,312
2016-03-15T06:28:35.598Z,344
2016-03-15T06:29:35.601Z,380
2016-03-15T06:30:35.603Z,408
2016-03-15T06:31:35.606Z,432
2016-03-15T06:32:35.625Z,448
2016-03-15T06:33:35.611Z,460
2016-03-15T06:34:35.631Z,472
2016-03-15T06:35:35.633Z,484
2016-03-15T06:36:35.651Z,492
2016-03-15T06:37:35.638Z,496
2016-03-15T06:38:35.656Z,496
2016-03-15T06:39:35.658Z,496
2016-03-15T06:40:35.677Z,496
2016-03-15T06:41:35.695Z,496
2016-03-15T06:42:35.682Z,504
2016-03-15T06:43:35.545Z,516
2016-03-15T06:44:35.688Z,528
2016-03-15T06:45:35.722Z,532
2016-03-15T06:46:35.693Z,536
2016-03-15T06:47:35.727Z,548
2016-03-15T06:48:35.714Z,556
2016-03-15T06:49:35.748Z,560
2016-03-15T06:50:35.735Z,572
2016-03-15T06:51:35.737Z,596
2016-03-15T06:52:35.756Z,612
2016-03-15T06:53:35.806Z,624
2016-03-15T06:54:35.762Z,636
2016-03-15T06:55:35.764Z,644
2016-03-15T06:56:35.751Z,664
2016-03-15T06:57:35.785Z,680
2016-03-15T06:58:35.772Z,680
2016-03-15T06:59:35.790Z,672
2016-03-15T07:00:35.778Z,688
2016-03-15T07:01:35.812Z,736
2016-03-15T07:02:35.799Z,796
2016-03-15T07:03:35.817Z,872
2016-03-15T07:04:35.820Z,908
2016-03-15T07:05:35.823Z,952
2016-03-15T07:06:35.934Z,1040
2016-03-15T07:07:35.832Z,1092
2016-03-15T07:08:35.866Z,1136
2016-03-15T07:09:35.837Z,1200
2016-03-15T07:10:35.855Z,1188
2016-03-15T07:11:35.858Z,1212
2016-03-15T07:12:35.876Z,1176
2016-03-15T07:13:35.879Z,1200
2016-03-15T07:14:35.866Z,1324
2016-03-15T07:15:35.885Z,1320
2016-03-15T07:16:35.887Z,1284
2016-03-15T07:17:35.921Z,1264
2016-03-15T07:18:35.909Z,1308
2016-03-15T07:19:35.911Z,1348
2016-03-15T07:20:35.914Z,1332
2016-03-15T07:21:35.931Z,1376
2016-03-15T07:22:35.950Z,1436
2016-03-15T07:23:35.937Z,1476
2016-03-15T07:24:35.956Z,1544
2016-03-15T07:25:35.958Z,1524
2016-03-15T07:26:35.961Z,1608
2016-03-15T07:27:35.964Z,1636
2016-03-15T07:28:35.982Z,1496
2016-03-15T07:29:35.985Z,1444
2016-03-15T07:30:35.972Z,1436
2016-03-15T07:31:35.990Z,1436
2016-03-15T07:32:36.008Z,1492
2016-03-15T07:33:36.011Z,1364
2016-03-15T07:34:36.013Z,1260
2016-03-15T07:35:36.033Z,1348
2016-03-15T07:36:36.035Z,1332
2016-03-15T07:37:36.037Z,1304
2016-03-15T07:38:36.041Z,1376
2016-03-15T07:39:36.058Z,1396
2016-03-15T07:40:36.060Z,1512
2016-03-15T07:41:36.079Z,1688
2016-03-15T07:42:36.113Z,1476
2016-03-15T07:43:36.084Z,1148
2016-03-15T07:44:36.088Z,1132
2016-03-15T07:45:36.090Z,1144
2016-03-15T07:46:36.092Z,1056
2016-03-15T07:47:36.096Z,944
2016-03-15T07:48:36.114Z,876
2016-03-15T07:49:36.117Z,844
2016-03-15T07:50:36.119Z,780
2016-03-15T07:51:36.137Z,744
2016-03-15T07:52:36.140Z,744
2016-03-15T07:53:36.143Z,760
2016-03-15T07:54:36.020Z,760
2016-03-15T07:55:36.164Z,804
2016-03-15T07:56:36.166Z,884
2016-03-15T07:57:36.185Z,1000
2016-03-15T07:58:36.188Z,1064
2016-03-15T07:59:36.205Z,1148
2016-03-15T08:00:36.209Z,1384
2016-03-15T08:01:36.196Z,1804
2016-03-15T08:02:36.214Z,1944
2016-03-15T08:03:36.216Z,1608
2016-03-15T08:04:36.219Z,1492
2016-03-15T08:05:36.238Z,1868
2016-03-15T08:06:36.240Z,2176
2016-03-15T08:07:36.243Z,2260
2016-03-15T08:08:36.245Z,2308
2016-03-15T08:09:36.264Z,2272
2016-03-15T08:10:36.282Z,2336
2016-03-15T08:11:36.285Z,2300
2016-03-15T08:12:36.304Z,2344
2016-03-15T08:13:36.274Z,2456
2016-03-15T08:14:36.277Z,2820
2016-03-15T08:15:36.312Z,2880
2016-03-15T08:16:36.298Z,2648
2016-03-15T08:17:36.317Z,2280
2016-03-15T08:18:36.320Z,1988
2016-03-15T08:19:36.322Z,1520
2016-03-15T08:20:36.341Z,1180
2016-03-15T08:21:36.359Z,1120
2016-03-15T08:22:36.362Z,1132
2016-03-15T08:23:36.365Z,1108
2016-03-15T08:24:36.367Z,1164
2016-03-15T08:25:36.385Z,1632
2016-03-15T08:26:36.388Z,1352
2016-03-15T08:27:36.406Z,1272
2016-03-15T08:28:36.408Z,1332
2016-03-15T08:29:36.412Z,1376
2016-03-15T08:30:36.414Z,1508
2016-03-15T08:31:36.416Z,2416
2016-03-15T08:32:36.436Z,5180
2016-03-15T08:33:36.438Z,4696
2016-03-15T08:34:36.455Z,3756
2016-03-15T08:35:36.475Z,3480
2016-03-15T08:36:36.477Z,7276
2016-03-15T08:37:36.480Z,2520
2016-03-15T08:38:36.483Z,3108
2016-03-15T08:39:36.485Z,2220
2016-03-15T08:40:36.504Z,1792
2016-03-15T08:41:36.507Z,1504
2016-03-15T08:42:36.509Z,1388
2016-03-15T08:43:36.512Z,1380
2016-03-15T08:44:36.530Z,1436
2016-03-15T08:45:36.532Z,2000
2016-03-15T08:46:36.535Z,1484
2016-03-15T08:47:36.554Z,1436
2016-03-15T08:48:36.557Z,1164
2016-03-15T08:49:36.576Z,1016
2016-03-15T08:50:36.578Z,996
2016-03-15T08:51:36.595Z,1016
2016-03-15T08:52:36.598Z,976
2016-03-15T08:53:36.445Z,1092
2016-03-15T08:54:36.603Z,1600
2016-03-15T08:55:36.623Z,1184
2016-03-15T08:56:36.625Z,864
2016-03-15T08:57:36.642Z,852
2016-03-15T08:58:36.645Z,924
2016-03-15T08:59:36.648Z,1060
2016-03-15T09:00:36.651Z,876
2016-03-15T09:01:36.653Z,872
2016-03-15T09:02:36.656Z,724
2016-03-15T09:03:36.675Z,712
2016-03-15T09:04:36.678Z,668
2016-03-15T09:05:36.680Z,668
2016-03-15T09:06:36.699Z,656
2016-03-15T09:07:36.561Z,640
2016-03-15T09:08:36.719Z,620
2016-03-15T09:09:36.706Z,604
2016-03-15T09:10:36.725Z,568
2016-03-15T09:11:36.727Z,568
2016-03-15T09:12:36.746Z,540
2016-03-15T09:13:36.749Z,552
2016-03-15T09:14:36.751Z,564
2016-03-15T09:15:36.770Z,540
2016-03-15T09:16:36.773Z,536
2016-03-15T09:17:36.775Z,556
2016-03-15T09:18:36.793Z,600
2016-03-15T09:19:36.796Z,620
2016-03-15T09:20:36.798Z,652
2016-03-15T09:21:36.818Z,692
2016-03-15T09:22:36.804Z,664
2016-03-15T09:23:36.822Z,616
2016-03-15T09:24:36.826Z,584
2016-03-15T09:25:36.828Z,580
2016-03-15T09:26:36.830Z,564
2016-03-15T09:27:36.848Z,580
2016-03-15T09:28:36.898Z,544
2016-03-15T09:29:36.869Z,520
2016-03-15T09:30:36.873Z,524
2016-03-15T09:31:36.734Z,508
2016-03-15T09:32:36.893Z,460
2016-03-15T09:33:36.897Z,416
2016-03-15T09:34:36.899Z,396
2016-03-15T09:35:36.901Z,392
2016-03-15T09:36:36.905Z,384
2016-03-15T09:37:36.907Z,388
2016-03-15T09:38:36.925Z,400
2016-03-15T09:39:36.928Z,404
2016-03-15T09:40:36.946Z,400
2016-03-15T09:41:36.949Z,404
2016-03-15T09:42:36.952Z,400
2016-03-15T09:43:36.954Z,380
2016-03-15T09:44:36.973Z,364
2016-03-15T09:45:36.975Z,356
2016-03-15T09:46:36.994Z,348
2016-03-15T09:47:36.996Z,344
2016-03-15T09:48:37.014Z,368
2016-03-15T09:49:37.018Z,400
2016-03-15T09:50:37.035Z,432
2016-03-15T09:51:37.037Z,416
2016-03-15T09:52:37.041Z,428
2016-03-15T09:53:37.043Z,444
2016-03-15T09:54:37.046Z,444
2016-03-15T09:55:37.065Z,440
2016-03-15T09:56:37.067Z,436
2016-03-15T09:57:37.086Z,412
2016-03-15T09:58:37.073Z,392
2016-03-15T09:59:37.091Z,408
2016-03-15T10:00:37.094Z,408
2016-03-15T10:01:37.097Z,416
2016-03-15T10:02:37.099Z,428
2016-03-15T10:03:37.117Z,480
2016-03-15T10:04:37.167Z,516
2016-03-15T10:05:37.138Z,500
2016-03-15T10:06:37.141Z,488
2016-03-15T10:07:37.144Z,488
2016-03-15T10:08:37.151Z,484
2016-03-15T10:09:37.154Z,496
2016-03-15T10:10:37.172Z,492
2016-03-15T10:11:37.300Z,488
2016-03-15T10:12:37.177Z,440
2016-03-15T10:13:37.180Z,404
2016-03-15T10:14:37.199Z,408
2016-03-15T10:15:37.217Z,412
2016-03-15T10:16:37.423Z,404
2016-03-15T10:17:37.207Z,376
2016-03-15T10:18:37.225Z,376
2016-03-15T10:19:37.243Z,412
2016-03-15T10:20:37.231Z,396
2016-03-15T10:21:37.248Z,416
2016-03-15T10:22:37.251Z,448
2016-03-15T10:23:37.254Z,452
2016-03-15T10:24:37.289Z,432
2016-03-15T10:25:37.275Z,400
2016-03-15T10:26:37.294Z,380
2016-03-15T10:27:37.297Z,420
2016-03-15T10:28:37.283Z,436
2016-03-15T10:29:37.302Z,428
2016-03-15T10:30:37.305Z,372
2016-03-15T10:31:37.307Z,344
2016-03-15T10:32:37.325Z,336
2016-03-15T10:33:37.328Z,360
2016-03-15T10:34:37.330Z,428
2016-03-15T10:35:37.349Z,468
2016-03-15T10:36:37.336Z,536
2016-03-15T10:37:37.807Z,528
2016-03-15T10:38:37.372Z,480
2016-03-15T10:39:37.375Z,460
2016-03-15T10:40:37.378Z,508
2016-03-15T10:41:37.396Z,536
2016-03-15T10:42:37.399Z,464
2016-03-15T10:43:37.402Z,412
2016-03-15T10:44:37.467Z,408
2016-03-15T10:45:37.423Z,432
2016-03-15T10:46:37.426Z,452
2016-03-15T10:47:37.287Z,424
2016-03-15T10:48:37.447Z,392
2016-03-15T10:49:37.481Z,400
2016-03-15T10:50:37.451Z,432
2016-03-15T10:51:37.486Z,448
2016-03-15T10:52:37.473Z,480
2016-03-15T10:53:37.491Z,484
2016-03-15T10:54:37.509Z,484
2016-03-15T10:55:37.497Z,520
2016-03-15T10:56:37.515Z,512
2016-03-15T10:57:37.502Z,556
2016-03-15T10:58:37.520Z,624
2016-03-15T10:59:37.508Z,700
2016-03-15T11:00:37.541Z,704
2016-03-15T11:01:37.559Z,628
2016-03-15T11:02:37.546Z,668
2016-03-15T11:03:37.550Z,676
2016-03-15T11:04:37.568Z,624
2016-03-15T11:05:37.555Z,584
2016-03-15T11:06:37.573Z,612
2016-03-15T11:07:37.575Z,548
2016-03-15T11:08:37.578Z,500
2016-03-15T11:09:37.596Z,456
2016-03-15T11:10:37.646Z,420
2016-03-15T11:11:37.618Z,412
2016-03-15T11:12:37.605Z,420
2016-03-15T11:13:37.624Z,460
2016-03-15T11:14:37.626Z,464
2016-03-15T11:15:37.690Z,468
2016-03-15T11:16:37.662Z,476
2016-03-15T11:17:36.912Z,488
2016-03-15T11:18:37.651Z,460
2016-03-15T11:19:37.702Z,440
2016-03-15T11:20:37.689Z,444
2016-03-15T11:21:37.707Z,444
2016-03-15T11:22:37.679Z,436
2016-03-15T11:23:37.759Z,468
2016-03-15T11:24:37.731Z,468
2016-03-15T11:25:37.702Z,448
2016-03-15T11:26:37.736Z,452
2016-03-15T11:27:37.739Z,440
2016-03-15T11:28:37.742Z,376
2016-03-15T11:29:37.728Z,368
2016-03-15T11:30:37.762Z,340
2016-03-15T11:31:37.765Z,320
2016-03-15T11:32:37.752Z,312
2016-03-15T11:33:37.927Z,304
2016-03-15T11:34:37.474Z,360
2016-03-15T11:35:37.807Z,376
2016-03-15T11:36:37.795Z,360
2016-03-15T11:37:37.797Z,332
2016-03-15T11:38:37.800Z,324
2016-03-15T11:39:37.850Z,320
2016-03-15T11:40:37.819Z,320
2016-03-15T11:41:37.836Z,332
2016-03-15T11:42:37.839Z,328
2016-03-15T11:43:37.841Z,360
2016-03-15T11:44:37.844Z,380
2016-03-15T11:45:37.863Z,332
2016-03-15T11:46:37.849Z,332
2016-03-15T11:47:37.868Z,340
2016-03-15T11:48:37.871Z,364
2016-03-15T11:49:37.889Z,356
2016-03-15T11:50:37.876Z,372
2016-03-15T11:51:37.910Z,412
2016-03-15T11:52:37.897Z,436
2016-03-15T11:53:37.916Z,460
2016-03-15T11:54:37.903Z,480
2016-03-15T11:55:37.920Z,428
2016-03-15T11:56:37.924Z,384
2016-03-15T11:57:37.942Z,400
2016-03-15T11:58:37.944Z,472
2016-03-15T11:59:37.947Z,492
2016-03-15T12:00:37.965Z,508
2016-03-15T12:01:37.968Z,504
2016-03-15T12:02:37.970Z,464
2016-03-15T12:03:37.973Z,468
2016-03-15T12:04:38.008Z,472
2016-03-15T12:05:37.994Z,468
2016-03-15T12:06:38.013Z,548
2016-03-15T12:07:38.016Z,540
2016-03-15T12:08:38.033Z,456
2016-03-15T12:09:37.865Z,424
2016-03-15T12:10:38.024Z,452
2016-03-15T12:11:38.041Z,480
2016-03-15T12:12:38.045Z,476
2016-03-15T12:13:38.047Z,440
2016-03-15T12:14:38.049Z,440
2016-03-15T12:15:38.068Z,424
2016-03-15T12:16:38.071Z,432
2016-03-15T12:17:38.090Z,440
2016-03-15T12:18:38.092Z,412
2016-03-15T12:19:38.095Z,404
2016-03-15T12:20:38.113Z,376
2016-03-15T12:21:38.568Z,408
2016-03-15T12:22:38.103Z,416
2016-03-15T12:23:38.121Z,404
2016-03-15T12:24:38.123Z,400
2016-03-15T12:25:38.143Z,396
2016-03-15T12:26:38.145Z,356
2016-03-15T12:27:38.147Z,352
2016-03-15T12:28:38.151Z,356
2016-03-15T12:29:38.168Z,320
2016-03-15T12:30:38.170Z,304
2016-03-15T12:31:38.190Z,344
2016-03-15T12:32:38.176Z,388
2016-03-15T12:33:38.195Z,388
2016-03-15T12:34:38.213Z,352
2016-03-15T12:35:38.294Z,356
2016-03-15T12:36:38.234Z,368
2016-03-15T12:37:38.221Z,408
2016-03-15T12:38:38.239Z,388
2016-03-15T12:39:38.242Z,348
2016-03-15T12:40:38.229Z,340
2016-03-15T12:41:38.248Z,364
2016-03-15T12:42:38.094Z,388
2016-03-15T12:43:38.252Z,420
2016-03-15T12:44:38.272Z,420
2016-03-15T12:45:38.274Z,404
2016-03-15T12:46:38.292Z,392
2016-03-15T12:47:38.296Z,392
2016-03-15T12:48:38.298Z,384
2016-03-15T12:49:38.301Z,372
2016-03-15T12:50:38.319Z,356
2016-03-15T12:51:38.321Z,328
2016-03-15T12:52:38.324Z,320
2016-03-15T12:53:38.326Z,316
2016-03-15T12:54:38.329Z,324
2016-03-15T12:55:38.347Z,304
2016-03-15T12:56:38.351Z,312
2016-03-15T12:57:38.369Z,308
2016-03-15T12:58:38.371Z,292
2016-03-15T12:59:38.374Z,312
2016-03-15T13:00:38.221Z,308
2016-03-15T13:01:38.223Z,332
2016-03-15T13:02:38.398Z,340
2016-03-15T13:03:38.416Z,336
2016-03-15T13:04:38.419Z,368
2016-03-15T13:05:38.437Z,380
2016-03-15T13:06:38.440Z,384
2016-03-15T13:07:38.333Z,380
2016-03-15T13:08:38.460Z,396
2016-03-15T13:09:38.479Z,384
2016-03-15T13:10:38.450Z,356
2016-03-15T13:11:38.452Z,332
2016-03-15T13:12:38.472Z,332
2016-03-15T13:13:38.490Z,340
2016-03-15T13:14:38.493Z,328
2016-03-15T13:15:38.496Z,340
2016-03-15T13:16:38.482Z,348
2016-03-15T13:17:38.501Z,332
2016-03-15T13:18:38.519Z,316
2016-03-15T13:19:38.537Z,308
2016-03-15T13:20:38.540Z,300
2016-03-15T13:21:38.543Z,284
2016-03-15T13:22:38.546Z,304
2016-03-15T13:23:38.548Z,324
2016-03-15T13:24:38.551Z,340
2016-03-15T13:25:38.569Z,368
2016-03-15T13:26:38.571Z,400
2016-03-15T13:27:38.573Z,380
2016-03-15T13:28:38.593Z,380
2016-03-15T13:29:38.611Z,388
2016-03-15T13:30:38.614Z,392
2016-03-15T13:31:38.617Z,400
2016-03-15T13:32:38.603Z,408
2016-03-15T13:33:38.622Z,388
2016-03-15T13:34:38.625Z,376
2016-03-15T13:35:38.627Z,372
2016-03-15T13:36:38.645Z,368
2016-03-15T13:37:38.648Z,344
2016-03-15T13:38:38.667Z,332
2016-03-15T13:39:38.669Z,344
2016-03-15T13:40:38.672Z,360
2016-03-15T13:41:38.675Z,376
2016-03-15T13:42:38.694Z,380
2016-03-15T13:43:38.696Z,376
2016-03-15T13:44:38.699Z,364
2016-03-15T13:45:38.701Z,348
2016-03-15T13:46:38.719Z,348
2016-03-15T13:47:38.722Z,348
2016-03-15T13:48:38.755Z,340
2016-03-15T13:49:38.743Z,368
2016-03-15T13:50:38.746Z,360
2016-03-15T13:51:38.748Z,352
2016-03-15T13:52:38.751Z,352
2016-03-15T13:53:38.769Z,368
2016-03-15T13:54:38.787Z,432
2016-03-15T13:55:38.806Z,476
2016-03-15T13:56:38.777Z,528
2016-03-15T13:57:38.796Z,580
2016-03-15T13:58:38.798Z,576
2016-03-15T13:59:38.816Z,552
2016-03-15T14:00:38.835Z,512
2016-03-15T14:01:38.837Z,496
2016-03-15T14:02:38.840Z,488
2016-03-15T14:03:38.093Z,440
2016-03-15T14:04:38.845Z,460
2016-03-15T14:05:38.848Z,436
2016-03-15T14:06:38.851Z,396
2016-03-15T14:07:38.869Z,348